createdAt,value
2023-01-21T00:00:24.570Z,-1.67
2023-01-21T00:04:11.510Z,-1.67
2023-01-21T00:07:38.521Z,-1.69
2023-01-21T00:11:10.081Z,-1.70
2023-01-21T00:14:36.984Z,-1.71
2023-01-21T00:18:04.023Z,-1.71
2023-01-21T00:21:31.036Z,-1.73
2023-01-21T00:24:58.009Z,-1.74
2023-01-21T00:28:25.513Z,-1.77
2023-01-21T00:31:52.730Z,-1.80
2023-01-21T00:35:19.795Z,-1.82
2023-01-21T00:38:49.554Z,-1.83
2023-01-21T00:42:16.616Z,-1.85
2023-01-21T00:45:43.839Z,-1.85
2023-01-21T00:49:10.811Z,-1.87
2023-01-21T00:52:38.670Z,-1.87
2023-01-21T00:56:07.850Z,-1.88
2023-01-21T00:59:34.903Z,-1.88
2023-01-21T01:03:02.060Z,-1.89
2023-01-21T01:06:29.486Z,-1.90
2023-01-21T01:09:56.421Z,-1.90
2023-01-21T01:13:23.432Z,-1.91
2023-01-21T01:16:50.797Z,-1.92
2023-01-21T01:20:18.506Z,-1.91
2023-01-21T01:23:46.674Z,-1.91
2023-01-21T01:27:13.801Z,-1.90
2023-01-21T01:30:40.766Z,-1.88
2023-01-21T01:34:07.822Z,-1.87
2023-01-21T01:37:34.773Z,-1.85
2023-01-21T01:41:02.340Z,-1.83
2023-01-21T01:45:06.211Z,-1.81
2023-01-21T01:48:34.313Z,-1.80
2023-01-21T01:52:06.519Z,-1.79
2023-01-21T01:55:36.802Z,-1.78
2023-01-21T01:59:03.770Z,-1.77
2023-01-21T02:02:31.035Z,-1.75
2023-01-21T02:05:58.306Z,-1.72
2023-01-21T02:09:29.859Z,-1.70
2023-01-21T02:12:57.131Z,-1.68
2023-01-21T02:16:48.925Z,-1.65
2023-01-21T02:20:51.334Z,-1.62
2023-01-21T02:24:49.696Z,-1.58
2023-01-21T02:28:38.944Z,-1.55
2023-01-21T02:32:28.103Z,-1.53
2023-01-21T02:36:05.832Z,-1.49
2023-01-21T02:39:46.417Z,-1.47
2023-01-21T02:43:19.401Z,-1.44
2023-01-21T02:46:51.792Z,-1.41
2023-01-21T02:50:24.453Z,-1.39
2023-01-21T02:53:51.980Z,-1.37
2023-01-21T02:57:32.214Z,-1.35
2023-01-21T03:01:12.431Z,-1.32
2023-01-21T03:04:59.881Z,-1.30
2023-01-21T03:08:33.686Z,-1.27
2023-01-21T03:12:12.593Z,-1.25
2023-01-21T03:16:05.838Z,-1.24
2023-01-21T03:19:41.277Z,-1.21
2023-01-21T03:23:12.100Z,-1.19
2023-01-21T03:26:47.955Z,-1.18
2023-01-21T03:30:18.650Z,-1.17
2023-01-21T03:33:52.378Z,-1.17
2023-01-21T03:37:27.174Z,-1.16
2023-01-21T03:40:59.444Z,-1.15
2023-01-21T03:44:26.755Z,-1.15
2023-01-21T03:48:00.172Z,-1.13
2023-01-21T03:51:32.799Z,-1.13
2023-01-21T03:55:00.303Z,-1.11
2023-01-21T03:58:27.787Z,-1.11
2023-01-21T04:01:55.009Z,-1.09
2023-01-21T04:05:21.961Z,-1.07
2023-01-21T04:08:49.812Z,-1.06
2023-01-21T04:12:16.852Z,-1.04
2023-01-21T04:15:46.060Z,-1.03
2023-01-21T04:19:13.054Z,-1.02
2023-01-21T04:22:40.313Z,-1.03
2023-01-21T04:26:08.021Z,-1.02
2023-01-21T04:29:34.925Z,-1.01
2023-01-21T04:33:03.006Z,-1.01
2023-01-21T04:36:29.939Z,-1.00
2023-01-21T04:39:56.870Z,-0.98
2023-01-21T04:43:23.807Z,-0.94
2023-01-21T04:46:50.969Z,-0.92
2023-01-21T04:50:19.057Z,-0.92
2023-01-21T04:53:46.195Z,-0.91
2023-01-21T04:57:13.313Z,-0.90
2023-01-21T05:00:40.242Z,-0.90
2023-01-21T05:04:07.755Z,-0.90
2023-01-21T05:07:34.844Z,-0.89
2023-01-21T05:11:01.809Z,-0.88
2023-01-21T05:14:28.804Z,-0.88
2023-01-21T05:17:55.797Z,-0.88
2023-01-21T05:21:22.780Z,-0.87
2023-01-21T05:24:49.922Z,-0.87
2023-01-21T05:28:16.858Z,-0.87
2023-01-21T05:31:44.618Z,-0.86
2023-01-21T05:35:13.918Z,-0.85
2023-01-21T05:38:41.156Z,-0.84
2023-01-21T05:42:08.219Z,-0.83
2023-01-21T05:45:35.466Z,-0.82
2023-01-21T05:49:02.399Z,-0.81
2023-01-21T05:52:29.865Z,-0.78
2023-01-21T05:55:58.058Z,-0.76
2023-01-21T05:59:25.102Z,-0.73
2023-01-21T06:02:52.214Z,-0.71
2023-01-21T06:06:19.273Z,-0.70
2023-01-21T06:09:46.584Z,-0.67
2023-01-21T06:13:16.698Z,-0.64
2023-01-21T06:16:43.627Z,-0.62
2023-01-21T06:20:15.199Z,-0.60
2023-01-21T06:23:42.994Z,-0.58
2023-01-21T06:27:09.944Z,-0.54
2023-01-21T06:30:36.988Z,-0.51
2023-01-21T06:34:04.150Z,-0.47
2023-01-21T06:37:31.108Z,-0.46
2023-01-21T06:40:58.128Z,-0.45
2023-01-21T06:44:25.087Z,-0.42
2023-01-21T06:47:52.249Z,-0.40
2023-01-21T06:51:19.286Z,-0.37
2023-01-21T06:54:46.648Z,-0.36
2023-01-21T06:58:14.152Z,-0.34
2023-01-21T07:01:41.203Z,-0.30
2023-01-21T07:05:09.674Z,-0.25
2023-01-21T07:08:36.701Z,-0.20
2023-01-21T07:12:03.646Z,-0.17
2023-01-21T07:15:31.102Z,-0.15
2023-01-21T07:18:58.217Z,-0.12
2023-01-21T07:22:25.433Z,-0.09
2023-01-21T07:25:52.679Z,-0.08
2023-01-21T07:29:20.399Z,-0.07
2023-01-21T07:32:47.707Z,-0.06
2023-01-21T07:36:15.036Z,-0.03
2023-01-21T07:39:42.033Z,-0.02
2023-01-21T07:43:09.576Z,0.00
2023-01-21T07:46:36.905Z,0.03
2023-01-21T07:50:08.535Z,0.04
2023-01-21T07:53:35.523Z,0.07
2023-01-21T07:57:02.469Z,0.11
2023-01-21T08:00:29.571Z,0.15
2023-01-21T08:03:56.507Z,0.20
2023-01-21T08:07:23.724Z,0.24
2023-01-21T08:10:55.267Z,0.27
2023-01-21T08:14:22.291Z,0.29
2023-01-21T08:17:49.676Z,0.27
2023-01-21T08:21:16.591Z,0.27
2023-01-21T08:24:43.492Z,0.26
2023-01-21T08:28:10.423Z,0.26
2023-01-21T08:31:37.540Z,0.27
2023-01-21T08:35:06.168Z,0.28
2023-01-21T08:38:33.128Z,0.27
2023-01-21T08:42:00.133Z,0.25
2023-01-21T08:45:27.192Z,0.22
2023-01-21T08:48:54.121Z,0.19
2023-01-21T08:52:21.716Z,0.15
2023-01-21T08:55:48.743Z,0.10
2023-01-21T08:59:17.060Z,0.07
2023-01-21T09:02:44.036Z,0.04
2023-01-21T09:06:13.497Z,-0.00
2023-01-21T09:09:40.857Z,-0.03
2023-01-21T09:13:09.345Z,-0.05
2023-01-21T09:16:36.919Z,-0.08
2023-01-21T09:20:04.367Z,-0.08
2023-01-21T09:23:34.169Z,-0.09
2023-01-21T09:27:01.220Z,-0.09
2023-01-21T09:30:28.356Z,-0.11
2023-01-21T09:33:57.069Z,-0.12
2023-01-21T09:37:24.064Z,-0.13
2023-01-21T09:40:51.729Z,-0.14
2023-01-21T09:44:24.800Z,-0.14
2023-01-21T09:47:55.205Z,-0.14
2023-01-21T09:51:27.238Z,-0.13
2023-01-21T09:54:55.144Z,-0.14
2023-01-21T09:58:28.133Z,-0.16
2023-01-21T10:02:00.285Z,-0.19
2023-01-21T10:05:54.570Z,-0.22
2023-01-21T10:09:45.090Z,-0.25
2023-01-21T10:13:30.370Z,-0.29
2023-01-21T10:17:07.316Z,-0.31
2023-01-21T10:20:40.563Z,-0.32
2023-01-21T10:24:15.414Z,-0.34
2023-01-21T10:27:43.655Z,-0.34
2023-01-21T10:31:21.605Z,-0.34
2023-01-21T10:34:52.910Z,-0.35
2023-01-21T10:38:30.431Z,-0.35
2023-01-21T10:42:14.336Z,-0.35
2023-01-21T10:46:04.620Z,-0.35
2023-01-21T10:49:47.054Z,-0.35
2023-01-21T10:53:24.239Z,-0.34
2023-01-21T10:56:58.736Z,-0.33
2023-01-21T11:00:29.678Z,-0.31
2023-01-21T11:03:59.435Z,-0.29
2023-01-21T11:07:28.216Z,-0.27
2023-01-21T11:10:56.370Z,-0.27
2023-01-21T11:14:25.801Z,-0.27
2023-01-21T11:17:56.642Z,-0.26
2023-01-21T11:21:26.590Z,-0.24
2023-01-21T11:24:54.281Z,-0.22
2023-01-21T11:28:30.190Z,-0.22
2023-01-21T11:32:06.889Z,-0.20
2023-01-21T11:35:34.028Z,-0.19
2023-01-21T11:39:06.085Z,-0.20
2023-01-21T11:42:33.255Z,-0.22
2023-01-21T11:46:00.630Z,-0.26
2023-01-21T11:49:30.423Z,-0.27
2023-01-21T11:53:14.212Z,-0.29
2023-01-21T11:56:43.794Z,-0.31
2023-01-21T12:00:19.030Z,-0.31
2023-01-21T12:03:51.577Z,-0.31
2023-01-21T12:07:23.431Z,-0.29
2023-01-21T12:10:52.667Z,-0.28
2023-01-21T12:14:29.082Z,-0.28
2023-01-21T12:18:04.532Z,-0.28
2023-01-21T12:21:39.943Z,-0.24
2023-01-21T12:25:22.617Z,-0.20
2023-01-21T12:32:40.575Z,-0.15
2023-01-21T12:36:12.952Z,-0.16
2023-01-21T12:39:41.554Z,-0.17
2023-01-21T12:43:14.929Z,-0.17
2023-01-21T12:46:46.299Z,-0.17
2023-01-21T12:50:25.512Z,-0.15
2023-01-21T12:53:57.915Z,-0.13
2023-01-21T12:57:30.844Z,-0.11
2023-01-21T13:00:59.347Z,-0.08
2023-01-21T13:04:41.319Z,-0.03
2023-01-21T13:08:32.642Z,0.00
2023-01-21T13:12:05.372Z,0.04
2023-01-21T13:15:36.593Z,0.05
2023-01-21T13:19:03.744Z,0.06
2023-01-21T13:22:40.643Z,0.07
2023-01-21T13:26:15.765Z,0.07
2023-01-21T13:29:51.699Z,0.06
2023-01-21T13:33:32.990Z,0.06
2023-01-21T13:37:14.260Z,0.06
2023-01-21T13:40:53.591Z,0.07
2023-01-21T13:44:51.015Z,0.04
2023-01-21T13:48:38.315Z,0.02
2023-01-21T13:52:12.709Z,0.00
2023-01-21T13:55:55.531Z,0.01
2023-01-21T13:59:27.071Z,0.00
2023-01-21T14:03:01.762Z,0.01
2023-01-21T14:06:33.878Z,0.00
2023-01-21T14:10:07.942Z,-0.00
2023-01-21T14:13:57.316Z,-0.01
2023-01-21T14:17:56.179Z,-0.02
2023-01-21T14:21:45.019Z,-0.03
2023-01-21T14:25:24.337Z,-0.04
2023-01-21T14:29:00.527Z,-0.07
2023-01-21T14:32:35.164Z,-0.07
2023-01-21T14:36:10.996Z,-0.08
2023-01-21T14:39:48.036Z,-0.10
2023-01-21T14:43:41.284Z,-0.12
2023-01-21T14:47:16.462Z,-0.14
2023-01-21T14:50:55.329Z,-0.15
2023-01-21T14:54:25.972Z,-0.17
2023-01-21T14:57:55.697Z,-0.20
2023-01-21T15:01:42.706Z,-0.22
2023-01-21T15:05:19.879Z,-0.25
2023-01-21T15:08:52.480Z,-0.27
2023-01-21T15:12:24.656Z,-0.30
2023-01-21T15:19:44.661Z,-0.27
2023-01-21T15:23:36.040Z,-0.31
2023-01-21T15:27:21.556Z,-0.32
2023-01-21T15:31:01.818Z,-0.33
2023-01-21T15:34:31.567Z,-0.33
2023-01-21T15:38:03.762Z,-0.34
2023-01-21T15:41:42.967Z,-0.34
2023-01-21T15:45:23.680Z,-0.34
2023-01-21T15:49:05.500Z,-0.34
2023-01-21T15:52:55.681Z,-0.34
2023-01-21T15:56:48.997Z,-0.34
2023-01-21T16:00:34.717Z,-0.34
2023-01-21T16:04:14.084Z,-0.35
2023-01-21T16:07:54.926Z,-0.36
2023-01-21T16:11:35.831Z,-0.36
2023-01-21T16:15:14.217Z,-0.37
2023-01-21T16:18:52.501Z,-0.37
2023-01-21T16:22:23.455Z,-0.36
2023-01-21T16:25:52.824Z,-0.36
2023-01-21T16:29:18.564Z,-0.37
2023-01-21T16:32:47.124Z,-0.36
2023-01-21T16:36:15.313Z,-0.37
2023-01-21T16:39:43.202Z,-0.37
2023-01-21T16:43:18.994Z,-0.37
2023-01-21T16:46:46.418Z,-0.38
2023-01-21T16:50:22.088Z,-0.38
2023-01-21T16:53:49.509Z,-0.38
2023-01-21T16:57:28.828Z,-0.38
2023-01-21T17:01:13.559Z,-0.38
2023-01-21T17:04:40.995Z,-0.39
2023-01-21T17:08:14.974Z,-0.39
2023-01-21T17:11:48.186Z,-0.40
2023-01-21T17:15:20.596Z,-0.40
2023-01-21T17:18:56.490Z,-0.41
2023-01-21T17:22:27.613Z,-0.41
2023-01-21T17:25:59.693Z,-0.40
2023-01-21T17:29:30.441Z,-0.39
2023-01-21T17:33:00.102Z,-0.39
2023-01-21T17:36:31.596Z,-0.39
2023-01-21T17:40:06.435Z,-0.39
2023-01-21T17:43:33.625Z,-0.38
2023-01-21T17:47:00.880Z,-0.37
2023-01-21T17:50:30.816Z,-0.35
2023-01-21T17:54:00.791Z,-0.35
2023-01-21T17:57:44.518Z,-0.34
2023-01-21T18:01:12.387Z,-0.33
2023-01-21T18:04:39.383Z,-0.33
2023-01-21T18:08:13.156Z,-0.32
2023-01-21T18:11:40.356Z,-0.32
2023-01-21T18:15:10.298Z,-0.33
2023-01-21T18:18:38.718Z,-0.33
2023-01-21T18:22:08.153Z,-0.31
2023-01-21T18:25:36.192Z,-0.30
2023-01-21T18:29:03.689Z,-0.28
2023-01-21T18:32:31.384Z,-0.27
2023-01-21T18:36:00.225Z,-0.25
2023-01-21T18:39:28.488Z,-0.25
2023-01-21T18:42:57.726Z,-0.24
2023-01-21T18:46:26.121Z,-0.22
2023-01-21T18:49:54.547Z,-0.21
2023-01-21T18:53:23.064Z,-0.20
2023-01-21T18:56:51.845Z,-0.20
2023-01-21T19:00:28.151Z,-0.19
2023-01-21T19:03:57.608Z,-0.18
2023-01-21T19:07:25.550Z,-0.16
2023-01-21T19:10:56.689Z,-0.16
2023-01-21T19:14:25.304Z,-0.16
2023-01-21T19:17:58.800Z,-0.16
2023-01-21T19:21:28.681Z,-0.16
2023-01-21T19:24:58.586Z,-0.17
2023-01-21T19:28:26.617Z,-0.17
2023-01-21T19:31:56.418Z,-0.17
2023-01-21T19:35:29.006Z,-0.17
2023-01-21T19:39:01.528Z,-0.17
2023-01-21T19:42:31.040Z,-0.18
2023-01-21T19:45:59.397Z,-0.18
2023-01-21T19:49:28.884Z,-0.17
2023-01-21T19:52:56.774Z,-0.14
2023-01-21T19:56:27.024Z,-0.15
2023-01-21T19:59:56.794Z,-0.15
2023-01-21T20:03:30.332Z,-0.13
2023-01-21T20:07:00.745Z,-0.11
2023-01-21T20:10:31.608Z,-0.10
2023-01-21T20:14:01.146Z,-0.09
2023-01-21T20:17:30.265Z,-0.09
2023-01-21T20:21:00.162Z,-0.09
2023-01-21T20:24:30.558Z,-0.08
2023-01-21T20:28:02.151Z,-0.08
2023-01-21T20:31:33.697Z,-0.08
2023-01-21T20:35:03.502Z,-0.08
2023-01-21T20:38:34.980Z,-0.08
2023-01-21T20:42:04.699Z,-0.08
2023-01-21T20:45:39.880Z,-0.08
2023-01-21T20:49:11.713Z,-0.07
2023-01-21T20:52:41.373Z,-0.07
2023-01-21T20:56:22.012Z,-0.07
2023-01-21T20:59:51.771Z,-0.08
2023-01-21T21:03:22.300Z,-0.09
2023-01-21T21:06:51.901Z,-0.09
2023-01-21T21:10:22.728Z,-0.11
2023-01-21T21:13:53.161Z,-0.13
2023-01-21T21:17:23.378Z,-0.14
2023-01-21T21:20:53.587Z,-0.15
2023-01-21T21:24:27.130Z,-0.16
2023-01-21T21:27:57.593Z,-0.16
2023-01-21T21:31:31.982Z,-0.16
2023-01-21T21:35:01.562Z,-0.16
2023-01-21T21:38:29.217Z,-0.17
2023-01-21T21:42:16.219Z,-0.17
2023-01-21T21:46:00.213Z,-0.16
2023-01-21T21:49:30.747Z,-0.15
2023-01-21T21:53:01.066Z,-0.16
2023-01-21T21:56:30.888Z,-0.16
2023-01-21T22:00:00.250Z,-0.15
2023-01-21T22:03:27.715Z,-0.14
2023-01-21T22:06:56.774Z,-0.13
2023-01-21T22:10:26.609Z,-0.13
2023-01-21T22:13:57.782Z,-0.13
2023-01-21T22:17:27.268Z,-0.13
2023-01-21T22:21:00.488Z,-0.12
2023-01-21T22:24:29.873Z,-0.11
2023-01-21T22:27:57.915Z,-0.12
2023-01-21T22:31:27.441Z,-0.12
2023-01-21T22:34:53.230Z,-0.11
2023-01-21T22:38:20.619Z,-0.12
2023-01-21T22:41:47.884Z,-0.11
2023-01-21T22:45:15.827Z,-0.11
2023-01-21T22:48:43.046Z,-0.10
2023-01-21T22:52:10.037Z,-0.09
2023-01-21T22:55:38.152Z,-0.09
2023-01-21T22:59:05.460Z,-0.08
2023-01-21T23:02:32.485Z,-0.07
2023-01-21T23:06:05.676Z,-0.07
2023-01-21T23:09:32.963Z,-0.06
2023-01-21T23:12:59.886Z,-0.05
2023-01-21T23:16:27.200Z,-0.04
2023-01-21T23:19:54.224Z,-0.03
2023-01-21T23:23:21.379Z,-0.03
2023-01-21T23:26:48.315Z,-0.03
2023-01-21T23:30:16.753Z,-0.03
2023-01-21T23:33:44.571Z,-0.03
2023-01-21T23:37:12.249Z,-0.02
2023-01-21T23:40:39.162Z,-0.02
2023-01-21T23:44:06.420Z,-0.03
2023-01-21T23:47:33.390Z,-0.03
2023-01-21T23:51:06.725Z,-0.02
2023-01-21T23:54:33.921Z,-0.03
2023-01-21T23:58:01.252Z,-0.03
